sensor_id;sensor_type;location;lat;lon;timestamp;P1;durP1;ratioP1;P2;durP2;ratioP2
72413;SDS011;60995;52.154;4.498;2023-06-10T00:01:52;22.90;;;13.70;;
72413;SDS011;60995;52.154;4.498;2023-06-10T00:04:11;24.65;;;12.77;;
72413;SDS011;60995;52.154;4.498;2023-06-10T00:06:27;20.30;;;12.15;;
72413;SDS011;60995;52.154;4.498;2023-06-10T00:08:45;22.35;;;12.35;;
72413;SDS011;60995;52.154;4.498;2023-06-10T00:11:02;18.73;;;11.30;;
72413;SDS011;60995;52.154;4.498;2023-06-10T00:13:19;17.90;;;10.52;;
72413;SDS011;60995;52.154;4.498;2023-06-10T00:15:35;19.23;;;9.75;;
72413;SDS011;60995;52.154;4.498;2023-06-10T00:17:51;18.77;;;9.52;;
72413;SDS011;60995;52.154;4.498;2023-06-10T00:20:08;18.27;;;8.27;;
72413;SDS011;60995;52.154;4.498;2023-06-10T00:22:27;16.38;;;7.40;;
72413;SDS011;60995;52.154;4.498;2023-06-10T00:24:45;15.60;;;7.15;;
72413;SDS011;60995;52.154;4.498;2023-06-10T00:27:01;14.80;;;6.60;;
72413;SDS011;60995;52.154;4.498;2023-06-10T00:29:17;13.63;;;6.55;;
72413;SDS011;60995;52.154;4.498;2023-06-10T00:31:38;15.73;;;6.55;;
72413;SDS011;60995;52.154;4.498;2023-06-10T00:33:54;11.43;;;5.57;;
72413;SDS011;60995;52.154;4.498;2023-06-10T00:36:10;14.90;;;5.55;;
72413;SDS011;60995;52.154;4.498;2023-06-10T00:38:27;14.15;;;5.40;;
72413;SDS011;60995;52.154;4.498;2023-06-10T00:40:43;11.63;;;5.70;;
72413;SDS011;60995;52.154;4.498;2023-06-10T00:43:03;11.32;;;5.22;;
72413;SDS011;60995;52.154;4.498;2023-06-10T00:45:19;9.75;;;4.80;;
72413;SDS011;60995;52.154;4.498;2023-06-10T00:47:35;9.30;;;4.82;;
72413;SDS011;60995;52.154;4.498;2023-06-10T00:49:52;9.57;;;4.80;;
72413;SDS011;60995;52.154;4.498;2023-06-10T00:52:10;12.10;;;5.20;;
72413;SDS011;60995;52.154;4.498;2023-06-10T00:54:28;11.00;;;5.10;;
72413;SDS011;60995;52.154;4.498;2023-06-10T00:56:47;16.45;;;5.88;;
72413;SDS011;60995;52.154;4.498;2023-06-10T00:59:05;10.75;;;5.25;;
72413;SDS011;60995;52.154;4.498;2023-06-10T01:01:22;14.27;;;6.05;;
72413;SDS011;60995;52.154;4.498;2023-06-10T01:03:41;10.45;;;5.22;;
72413;SDS011;60995;52.154;4.498;2023-06-10T01:05:59;10.45;;;5.43;;
72413;SDS011;60995;52.154;4.498;2023-06-10T01:08:33;13.00;;;5.57;;
72413;SDS011;60995;52.154;4.498;2023-06-10T01:11:17;17.52;;;6.40;;
72413;SDS011;60995;52.154;4.498;2023-06-10T01:13:43;11.98;;;6.15;;
72413;SDS011;60995;52.154;4.498;2023-06-10T01:16:02;13.10;;;6.57;;
72413;SDS011;60995;52.154;4.498;2023-06-10T01:18:19;12.05;;;6.75;;
72413;SDS011;60995;52.154;4.498;2023-06-10T01:20:37;18.17;;;7.40;;
72413;SDS011;60995;52.154;4.498;2023-06-10T01:22:56;14.82;;;6.93;;
72413;SDS011;60995;52.154;4.498;2023-06-10T01:25:13;16.08;;;6.32;;
72413;SDS011;60995;52.154;4.498;2023-06-10T01:27:32;12.88;;;6.40;;
72413;SDS011;60995;52.154;4.498;2023-06-10T01:29:58;13.63;;;5.72;;
72413;SDS011;60995;52.154;4.498;2023-06-10T01:32:23;13.60;;;5.57;;
72413;SDS011;60995;52.154;4.498;2023-06-10T01:34:56;13.32;;;4.93;;
72413;SDS011;60995;52.154;4.498;2023-06-10T01:37:13;10.88;;;5.03;;
72413;SDS011;60995;52.154;4.498;2023-06-10T01:39:37;17.33;;;5.65;;
72413;SDS011;60995;52.154;4.498;2023-06-10T01:41:56;13.52;;;5.07;;
72413;SDS011;60995;52.154;4.498;2023-06-10T01:44:17;12.02;;;5.45;;
72413;SDS011;60995;52.154;4.498;2023-06-10T01:46:35;13.15;;;5.68;;
72413;SDS011;60995;52.154;4.498;2023-06-10T01:48:53;14.10;;;6.60;;
72413;SDS011;60995;52.154;4.498;2023-06-10T01:51:09;14.73;;;6.97;;
72413;SDS011;60995;52.154;4.498;2023-06-10T01:53:25;14.93;;;7.20;;
72413;SDS011;60995;52.154;4.498;2023-06-10T01:55:42;14.77;;;7.00;;
72413;SDS011;60995;52.154;4.498;2023-06-10T01:57:58;15.13;;;7.20;;
72413;SDS011;60995;52.154;4.498;2023-06-10T02:00:15;16.25;;;7.60;;
72413;SDS011;60995;52.154;4.498;2023-06-10T02:02:32;16.60;;;8.52;;
72413;SDS011;60995;52.154;4.498;2023-06-10T02:04:50;19.42;;;9.20;;
72413;SDS011;60995;52.154;4.498;2023-06-10T02:07:06;17.88;;;8.68;;
72413;SDS011;60995;52.154;4.498;2023-06-10T02:09:23;16.35;;;9.02;;
72413;SDS011;60995;52.154;4.498;2023-06-10T02:11:39;19.70;;;9.77;;
72413;SDS011;60995;52.154;4.498;2023-06-10T02:13:55;18.73;;;10.40;;
72413;SDS011;60995;52.154;4.498;2023-06-10T02:16:13;20.17;;;9.68;;
72413;SDS011;60995;52.154;4.498;2023-06-10T02:18:32;19.35;;;8.93;;
72413;SDS011;60995;52.154;4.498;2023-06-10T02:20:49;17.02;;;8.07;;
72413;SDS011;60995;52.154;4.498;2023-06-10T02:23:05;14.70;;;7.60;;
72413;SDS011;60995;52.154;4.498;2023-06-10T02:25:22;14.77;;;7.60;;
72413;SDS011;60995;52.154;4.498;2023-06-10T02:27:38;13.90;;;7.03;;
72413;SDS011;60995;52.154;4.498;2023-06-10T02:29:56;15.82;;;7.05;;
72413;SDS011;60995;52.154;4.498;2023-06-10T02:32:13;15.70;;;6.85;;
72413;SDS011;60995;52.154;4.498;2023-06-10T02:34:32;12.35;;;6.20;;
72413;SDS011;60995;52.154;4.498;2023-06-10T02:36:52;12.80;;;6.05;;
72413;SDS011;60995;52.154;4.498;2023-06-10T02:39:08;11.98;;;6.20;;
72413;SDS011;60995;52.154;4.498;2023-06-10T02:41:24;13.82;;;6.25;;
72413;SDS011;60995;52.154;4.498;2023-06-10T02:43:40;11.50;;;6.05;;
72413;SDS011;60995;52.154;4.498;2023-06-10T02:45:57;12.50;;;6.10;;
72413;SDS011;60995;52.154;4.498;2023-06-10T02:48:13;12.65;;;6.22;;
72413;SDS011;60995;52.154;4.498;2023-06-10T02:50:29;13.85;;;5.57;;
72413;SDS011;60995;52.154;4.498;2023-06-10T02:52:46;10.57;;;5.97;;
72413;SDS011;60995;52.154;4.498;2023-06-10T02:55:02;14.80;;;6.05;;
72413;SDS011;60995;52.154;4.498;2023-06-10T02:57:19;12.45;;;6.00;;
72413;SDS011;60995;52.154;4.498;2023-06-10T02:59:35;13.65;;;6.50;;
72413;SDS011;60995;52.154;4.498;2023-06-10T03:01:52;11.63;;;6.13;;
72413;SDS011;60995;52.154;4.498;2023-06-10T03:04:08;13.73;;;6.10;;
72413;SDS011;60995;52.154;4.498;2023-06-10T03:06:25;15.07;;;5.55;;
72413;SDS011;60995;52.154;4.498;2023-06-10T03:08:42;13.25;;;5.68;;
72413;SDS011;60995;52.154;4.498;2023-06-10T03:10:58;13.60;;;5.60;;
72413;SDS011;60995;52.154;4.498;2023-06-10T03:13:14;10.63;;;5.03;;
72413;SDS011;60995;52.154;4.498;2023-06-10T03:15:31;10.98;;;5.95;;
72413;SDS011;60995;52.154;4.498;2023-06-10T03:17:48;14.82;;;6.03;;
72413;SDS011;60995;52.154;4.498;2023-06-10T03:20:05;13.32;;;6.30;;
72413;SDS011;60995;52.154;4.498;2023-06-10T03:22:23;11.48;;;5.90;;
72413;SDS011;60995;52.154;4.498;2023-06-10T03:24:40;11.45;;;5.47;;
72413;SDS011;60995;52.154;4.498;2023-06-10T03:26:56;12.55;;;6.15;;
72413;SDS011;60995;52.154;4.498;2023-06-10T03:29:12;13.73;;;6.90;;
72413;SDS011;60995;52.154;4.498;2023-06-10T03:31:29;17.00;;;7.07;;
72413;SDS011;60995;52.154;4.498;2023-06-10T03:33:45;15.13;;;7.30;;
72413;SDS011;60995;52.154;4.498;2023-06-10T03:36:01;14.60;;;7.32;;
72413;SDS011;60995;52.154;4.498;2023-06-10T03:38:18;16.05;;;8.98;;
72413;SDS011;60995;52.154;4.498;2023-06-10T03:40:35;16.33;;;8.70;;
72413;SDS011;60995;52.154;4.498;2023-06-10T03:42:51;16.67;;;8.73;;
72413;SDS011;60995;52.154;4.498;2023-06-10T03:45:07;20.17;;;9.73;;
72413;SDS011;60995;52.154;4.498;2023-06-10T03:47:24;17.65;;;9.75;;
72413;SDS011;60995;52.154;4.498;2023-06-10T03:49:41;20.33;;;10.00;;
72413;SDS011;60995;52.154;4.498;2023-06-10T03:51:57;23.60;;;9.75;;
72413;SDS011;60995;52.154;4.498;2023-06-10T03:54:13;21.88;;;10.80;;
72413;SDS011;60995;52.154;4.498;2023-06-10T03:56:31;17.27;;;9.82;;
72413;SDS011;60995;52.154;4.498;2023-06-10T03:58:48;18.42;;;9.10;;
72413;SDS011;60995;52.154;4.498;2023-06-10T04:01:04;18.92;;;8.77;;
72413;SDS011;60995;52.154;4.498;2023-06-10T04:03:20;18.42;;;9.90;;
72413;SDS011;60995;52.154;4.498;2023-06-10T04:05:36;16.50;;;8.18;;
72413;SDS011;60995;52.154;4.498;2023-06-10T04:07:53;15.93;;;9.68;;
72413;SDS011;60995;52.154;4.498;2023-06-10T04:10:10;19.02;;;9.95;;
72413;SDS011;60995;52.154;4.498;2023-06-10T04:12:27;18.60;;;9.85;;
72413;SDS011;60995;52.154;4.498;2023-06-10T04:14:43;20.05;;;10.18;;
72413;SDS011;60995;52.154;4.498;2023-06-10T04:16:59;17.90;;;9.93;;
72413;SDS011;60995;52.154;4.498;2023-06-10T04:19:16;24.38;;;10.30;;
72413;SDS011;60995;52.154;4.498;2023-06-10T04:21:32;19.23;;;9.77;;
72413;SDS011;60995;52.154;4.498;2023-06-10T04:23:48;15.45;;;9.77;;
72413;SDS011;60995;52.154;4.498;2023-06-10T04:26:05;16.83;;;9.18;;
72413;SDS011;60995;52.154;4.498;2023-06-10T04:28:21;17.00;;;9.10;;
72413;SDS011;60995;52.154;4.498;2023-06-10T04:30:38;16.80;;;8.52;;
72413;SDS011;60995;52.154;4.498;2023-06-10T04:32:54;18.10;;;8.68;;
72413;SDS011;60995;52.154;4.498;2023-06-10T04:35:11;17.35;;;8.05;;
72413;SDS011;60995;52.154;4.498;2023-06-10T04:37:29;16.40;;;7.80;;
72413;SDS011;60995;52.154;4.498;2023-06-10T04:39:47;15.93;;;8.40;;
72413;SDS011;60995;52.154;4.498;2023-06-10T04:42:04;17.42;;;8.63;;
72413;SDS011;60995;52.154;4.498;2023-06-10T04:44:21;17.15;;;8.57;;
72413;SDS011;60995;52.154;4.498;2023-06-10T04:46:37;14.77;;;8.20;;
72413;SDS011;60995;52.154;4.498;2023-06-10T04:48:54;16.80;;;8.20;;
72413;SDS011;60995;52.154;4.498;2023-06-10T04:51:11;15.77;;;7.95;;
72413;SDS011;60995;52.154;4.498;2023-06-10T04:53:27;16.95;;;8.15;;
72413;SDS011;60995;52.154;4.498;2023-06-10T04:55:44;13.93;;;7.90;;
72413;SDS011;60995;52.154;4.498;2023-06-10T04:58:01;15.32;;;7.88;;
72413;SDS011;60995;52.154;4.498;2023-06-10T05:00:17;15.75;;;8.10;;
72413;SDS011;60995;52.154;4.498;2023-06-10T05:02:34;17.02;;;8.10;;
72413;SDS011;60995;52.154;4.498;2023-06-10T05:04:50;16.38;;;8.65;;
72413;SDS011;60995;52.154;4.498;2023-06-10T05:07:07;18.27;;;9.00;;
72413;SDS011;60995;52.154;4.498;2023-06-10T05:09:23;16.38;;;8.85;;
72413;SDS011;60995;52.154;4.498;2023-06-10T05:11:39;17.00;;;9.20;;
72413;SDS011;60995;52.154;4.498;2023-06-10T05:13:55;16.95;;;9.45;;
72413;SDS011;60995;52.154;4.498;2023-06-10T05:16:12;19.02;;;9.27;;
72413;SDS011;60995;52.154;4.498;2023-06-10T05:18:28;19.05;;;9.00;;
72413;SDS011;60995;52.154;4.498;2023-06-10T05:20:45;15.65;;;9.73;;
72413;SDS011;60995;52.154;4.498;2023-06-10T05:23:02;17.75;;;9.18;;
72413;SDS011;60995;52.154;4.498;2023-06-10T05:25:18;23.60;;;9.90;;
72413;SDS011;60995;52.154;4.498;2023-06-10T05:27:35;17.40;;;9.35;;
72413;SDS011;60995;52.154;4.498;2023-06-10T05:29:52;18.25;;;10.02;;
72413;SDS011;60995;52.154;4.498;2023-06-10T05:32:08;17.13;;;9.13;;
72413;SDS011;60995;52.154;4.498;2023-06-10T05:34:24;16.83;;;10.07;;
72413;SDS011;60995;52.154;4.498;2023-06-10T05:36:41;18.17;;;9.82;;
72413;SDS011;60995;52.154;4.498;2023-06-10T05:38:57;17.67;;;10.50;;
72413;SDS011;60995;52.154;4.498;2023-06-10T05:41:14;22.33;;;9.80;;
72413;SDS011;60995;52.154;4.498;2023-06-10T05:43:30;16.08;;;10.00;;
72413;SDS011;60995;52.154;4.498;2023-06-10T05:45:49;18.02;;;9.32;;
72413;SDS011;60995;52.154;4.498;2023-06-10T05:48:06;18.98;;;8.23;;
72413;SDS011;60995;52.154;4.498;2023-06-10T05:50:23;15.90;;;8.32;;
72413;SDS011;60995;52.154;4.498;2023-06-10T05:52:40;14.50;;;7.75;;
72413;SDS011;60995;52.154;4.498;2023-06-10T05:54:56;14.52;;;7.60;;
72413;SDS011;60995;52.154;4.498;2023-06-10T05:57:13;14.88;;;7.18;;
72413;SDS011;60995;52.154;4.498;2023-06-10T05:59:32;16.77;;;6.75;;
72413;SDS011;60995;52.154;4.498;2023-06-10T06:01:48;13.25;;;6.60;;
72413;SDS011;60995;52.154;4.498;2023-06-10T06:04:05;12.93;;;7.50;;
72413;SDS011;60995;52.154;4.498;2023-06-10T06:06:22;15.77;;;7.15;;
72413;SDS011;60995;52.154;4.498;2023-06-10T06:08:38;14.90;;;7.47;;
72413;SDS011;60995;52.154;4.498;2023-06-10T06:10:55;14.80;;;7.63;;
72413;SDS011;60995;52.154;4.498;2023-06-10T06:13:11;13.68;;;7.30;;
72413;SDS011;60995;52.154;4.498;2023-06-10T06:15:27;13.38;;;7.65;;
72413;SDS011;60995;52.154;4.498;2023-06-10T06:17:44;15.20;;;7.72;;
72413;SDS011;60995;52.154;4.498;2023-06-10T06:20:01;13.35;;;6.95;;
72413;SDS011;60995;52.154;4.498;2023-06-10T06:22:19;15.75;;;7.05;;
72413;SDS011;60995;52.154;4.498;2023-06-10T06:24:37;15.25;;;7.60;;
72413;SDS011;60995;52.154;4.498;2023-06-10T06:26:53;16.48;;;7.97;;
72413;SDS011;60995;52.154;4.498;2023-06-10T06:29:09;13.70;;;7.20;;
72413;SDS011;60995;52.154;4.498;2023-06-10T06:31:25;17.58;;;8.35;;
72413;SDS011;60995;52.154;4.498;2023-06-10T06:33:42;20.48;;;8.02;;
72413;SDS011;60995;52.154;4.498;2023-06-10T06:35:58;16.02;;;8.18;;
72413;SDS011;60995;52.154;4.498;2023-06-10T06:38:16;13.20;;;7.95;;
72413;SDS011;60995;52.154;4.498;2023-06-10T06:40:32;17.80;;;7.82;;
72413;SDS011;60995;52.154;4.498;2023-06-10T06:42:48;17.95;;;8.15;;
72413;SDS011;60995;52.154;4.498;2023-06-10T06:45:05;14.02;;;8.27;;
72413;SDS011;60995;52.154;4.498;2023-06-10T06:47:22;15.00;;;7.25;;
72413;SDS011;60995;52.154;4.498;2023-06-10T06:49:38;15.73;;;6.97;;
72413;SDS011;60995;52.154;4.498;2023-06-10T06:51:55;14.93;;;7.18;;
72413;SDS011;60995;52.154;4.498;2023-06-10T06:54:11;13.07;;;6.90;;
72413;SDS011;60995;52.154;4.498;2023-06-10T06:56:27;13.25;;;6.38;;
72413;SDS011;60995;52.154;4.498;2023-06-10T06:58:45;10.70;;;6.25;;
72413;SDS011;60995;52.154;4.498;2023-06-10T07:01:01;13.82;;;6.78;;
72413;SDS011;60995;52.154;4.498;2023-06-10T07:03:17;12.75;;;6.82;;
72413;SDS011;60995;52.154;4.498;2023-06-10T07:05:33;12.43;;;6.85;;
72413;SDS011;60995;52.154;4.498;2023-06-10T07:07:50;14.95;;;7.10;;
72413;SDS011;60995;52.154;4.498;2023-06-10T07:10:10;13.23;;;7.28;;
72413;SDS011;60995;52.154;4.498;2023-06-10T07:12:27;14.05;;;8.20;;
72413;SDS011;60995;52.154;4.498;2023-06-10T07:14:43;13.73;;;6.78;;
72413;SDS011;60995;52.154;4.498;2023-06-10T07:17:00;12.88;;;6.63;;
72413;SDS011;60995;52.154;4.498;2023-06-10T07:19:16;13.02;;;6.85;;
72413;SDS011;60995;52.154;4.498;2023-06-10T07:21:33;12.80;;;7.18;;
72413;SDS011;60995;52.154;4.498;2023-06-10T07:23:49;14.23;;;7.20;;
72413;SDS011;60995;52.154;4.498;2023-06-10T07:26:09;12.15;;;7.43;;
72413;SDS011;60995;52.154;4.498;2023-06-10T07:28:29;13.60;;;7.88;;
72413;SDS011;60995;52.154;4.498;2023-06-10T07:30:45;13.38;;;7.15;;
72413;SDS011;60995;52.154;4.498;2023-06-10T07:33:01;12.60;;;8.02;;
72413;SDS011;60995;52.154;4.498;2023-06-10T07:35:17;14.95;;;8.45;;
72413;SDS011;60995;52.154;4.498;2023-06-10T07:37:34;17.08;;;9.20;;
72413;SDS011;60995;52.154;4.498;2023-06-10T07:39:51;13.93;;;8.13;;
72413;SDS011;60995;52.154;4.498;2023-06-10T07:42:07;17.48;;;7.72;;
72413;SDS011;60995;52.154;4.498;2023-06-10T07:44:24;12.00;;;7.60;;
72413;SDS011;60995;52.154;4.498;2023-06-10T07:46:40;12.82;;;7.18;;
72413;SDS011;60995;52.154;4.498;2023-06-10T07:48:56;13.98;;;7.18;;
72413;SDS011;60995;52.154;4.498;2023-06-10T07:51:13;12.63;;;6.70;;
72413;SDS011;60995;52.154;4.498;2023-06-10T07:53:29;13.23;;;6.18;;
72413;SDS011;60995;52.154;4.498;2023-06-10T07:55:45;13.73;;;6.13;;
72413;SDS011;60995;52.154;4.498;2023-06-10T07:58:01;11.65;;;6.28;;
72413;SDS011;60995;52.154;4.498;2023-06-10T08:00:18;10.40;;;6.32;;
72413;SDS011;60995;52.154;4.498;2023-06-10T08:02:38;13.13;;;7.07;;
72413;SDS011;60995;52.154;4.498;2023-06-10T08:04:55;15.27;;;7.78;;
72413;SDS011;60995;52.154;4.498;2023-06-10T08:07:11;13.48;;;6.53;;
72413;SDS011;60995;52.154;4.498;2023-06-10T08:09:30;13.93;;;6.30;;
72413;SDS011;60995;52.154;4.498;2023-06-10T08:11:46;13.65;;;6.25;;
72413;SDS011;60995;52.154;4.498;2023-06-10T08:14:03;15.38;;;6.60;;
72413;SDS011;60995;52.154;4.498;2023-06-10T08:16:19;14.43;;;6.55;;
72413;SDS011;60995;52.154;4.498;2023-06-10T08:18:36;12.38;;;6.60;;
72413;SDS011;60995;52.154;4.498;2023-06-10T08:20:52;10.88;;;6.28;;
72413;SDS011;60995;52.154;4.498;2023-06-10T08:23:08;11.38;;;5.97;;
72413;SDS011;60995;52.154;4.498;2023-06-10T08:25:25;11.23;;;6.22;;
72413;SDS011;60995;52.154;4.498;2023-06-10T08:27:41;11.95;;;6.10;;
72413;SDS011;60995;52.154;4.498;2023-06-10T08:29:58;14.07;;;6.55;;
72413;SDS011;60995;52.154;4.498;2023-06-10T08:32:16;13.80;;;6.47;;
72413;SDS011;60995;52.154;4.498;2023-06-10T08:34:35;13.65;;;6.78;;
72413;SDS011;60995;52.154;4.498;2023-06-10T08:36:52;11.50;;;6.35;;
72413;SDS011;60995;52.154;4.498;2023-06-10T08:39:10;12.73;;;6.78;;
72413;SDS011;60995;52.154;4.498;2023-06-10T08:41:28;13.30;;;6.38;;
72413;SDS011;60995;52.154;4.498;2023-06-10T08:43:54;12.15;;;6.60;;
72413;SDS011;60995;52.154;4.498;2023-06-10T08:46:42;13.15;;;6.90;;
72413;SDS011;60995;52.154;4.498;2023-06-10T08:49:05;15.50;;;6.43;;
72413;SDS011;60995;52.154;4.498;2023-06-10T08:51:25;10.70;;;5.93;;
72413;SDS011;60995;52.154;4.498;2023-06-10T08:53:53;10.60;;;6.18;;
72413;SDS011;60995;52.154;4.498;2023-06-10T08:56:20;13.15;;;6.38;;
72413;SDS011;60995;52.154;4.498;2023-06-10T08:58:41;11.38;;;5.93;;
72413;SDS011;60995;52.154;4.498;2023-06-10T09:00:58;11.07;;;6.30;;
72413;SDS011;60995;52.154;4.498;2023-06-10T09:03:15;11.73;;;6.30;;
72413;SDS011;60995;52.154;4.498;2023-06-10T09:05:35;12.90;;;6.22;;
72413;SDS011;60995;52.154;4.498;2023-06-10T09:07:53;13.43;;;6.20;;
72413;SDS011;60995;52.154;4.498;2023-06-10T09:10:13;12.82;;;6.15;;
72413;SDS011;60995;52.154;4.498;2023-06-10T09:12:29;12.50;;;6.25;;
72413;SDS011;60995;52.154;4.498;2023-06-10T09:14:46;10.52;;;5.88;;
72413;SDS011;60995;52.154;4.498;2023-06-10T09:17:03;12.27;;;5.93;;
72413;SDS011;60995;52.154;4.498;2023-06-10T09:19:25;9.77;;;5.78;;
72413;SDS011;60995;52.154;4.498;2023-06-10T09:21:47;12.48;;;5.85;;
72413;SDS011;60995;52.154;4.498;2023-06-10T09:24:08;11.10;;;6.28;;
72413;SDS011;60995;52.154;4.498;2023-06-10T09:26:34;9.95;;;5.68;;
72413;SDS011;60995;52.154;4.498;2023-06-10T09:28:57;14.30;;;6.25;;
72413;SDS011;60995;52.154;4.498;2023-06-10T09:31:31;11.05;;;5.60;;
72413;SDS011;60995;52.154;4.498;2023-06-10T09:36:57;11.27;;;5.38;;
72413;SDS011;60995;52.154;4.498;2023-06-10T09:39:18;10.55;;;5.45;;
72413;SDS011;60995;52.154;4.498;2023-06-10T09:41:55;10.20;;;5.78;;
72413;SDS011;60995;52.154;4.498;2023-06-10T09:44:27;10.50;;;5.93;;
72413;SDS011;60995;52.154;4.498;2023-06-10T09:47:01;11.20;;;5.88;;
72413;SDS011;60995;52.154;4.498;2023-06-10T09:52:32;10.70;;;5.32;;
72413;SDS011;60995;52.154;4.498;2023-06-10T09:54:48;10.65;;;5.28;;
72413;SDS011;60995;52.154;4.498;2023-06-10T09:57:08;12.43;;;5.22;;
72413;SDS011;60995;52.154;4.498;2023-06-10T09:59:31;12.02;;;5.40;;
72413;SDS011;60995;52.154;4.498;2023-06-10T10:01:54;12.10;;;5.70;;
72413;SDS011;60995;52.154;4.498;2023-06-10T10:04:22;9.77;;;5.38;;
72413;SDS011;60995;52.154;4.498;2023-06-10T10:06:43;9.95;;;5.55;;
72413;SDS011;60995;52.154;4.498;2023-06-10T10:08:59;10.82;;;5.30;;
72413;SDS011;60995;52.154;4.498;2023-06-10T10:11:20;8.70;;;4.78;;
72413;SDS011;60995;52.154;4.498;2023-06-10T10:13:44;9.45;;;5.07;;
72413;SDS011;60995;52.154;4.498;2023-06-10T10:16:10;14.38;;;5.57;;
72413;SDS011;60995;52.154;4.498;2023-06-10T10:18:34;9.32;;;5.32;;
72413;SDS011;60995;52.154;4.498;2023-06-10T10:21:04;10.75;;;5.00;;
72413;SDS011;60995;52.154;4.498;2023-06-10T10:24:12;15.70;;;5.60;;
72413;SDS011;60995;52.154;4.498;2023-06-10T10:26:28;9.43;;;5.10;;
72413;SDS011;60995;52.154;4.498;2023-06-10T10:28:57;11.38;;;5.28;;
72413;SDS011;60995;52.154;4.498;2023-06-10T10:31:15;12.88;;;5.63;;
72413;SDS011;60995;52.154;4.498;2023-06-10T10:33:45;12.05;;;5.13;;
72413;SDS011;60995;52.154;4.498;2023-06-10T10:36:12;9.75;;;4.75;;
72413;SDS011;60995;52.154;4.498;2023-06-10T10:38:30;10.73;;;5.50;;
72413;SDS011;60995;52.154;4.498;2023-06-10T10:40:47;9.40;;;5.07;;
72413;SDS011;60995;52.154;4.498;2023-06-10T10:43:05;11.27;;;4.85;;
72413;SDS011;60995;52.154;4.498;2023-06-10T10:45:22;8.68;;;4.57;;
72413;SDS011;60995;52.154;4.498;2023-06-10T10:47:39;10.32;;;4.70;;
72413;SDS011;60995;52.154;4.498;2023-06-10T10:49:58;11.68;;;5.30;;
72413;SDS011;60995;52.154;4.498;2023-06-10T10:52:15;10.95;;;4.78;;
72413;SDS011;60995;52.154;4.498;2023-06-10T10:54:35;11.52;;;5.03;;
72413;SDS011;60995;52.154;4.498;2023-06-10T10:59:45;11.80;;;4.93;;
72413;SDS011;60995;52.154;4.498;2023-06-10T11:04:48;10.50;;;4.57;;
72413;SDS011;60995;52.154;4.498;2023-06-10T11:07:08;8.05;;;4.28;;
72413;SDS011;60995;52.154;4.498;2023-06-10T11:09:25;9.65;;;5.18;;
72413;SDS011;60995;52.154;4.498;2023-06-10T11:11:50;11.27;;;4.65;;
72413;SDS011;60995;52.154;4.498;2023-06-10T11:14:07;9.60;;;4.57;;
72413;SDS011;60995;52.154;4.498;2023-06-10T11:16:25;11.75;;;4.68;;
72413;SDS011;60995;52.154;4.498;2023-06-10T11:18:44;15.65;;;4.80;;
72413;SDS011;60995;52.154;4.498;2023-06-10T11:21:10;8.05;;;4.18;;
72413;SDS011;60995;52.154;4.498;2023-06-10T11:25:49;10.43;;;4.57;;
72413;SDS011;60995;52.154;4.498;2023-06-10T11:28:18;10.82;;;4.88;;
72413;SDS011;60995;52.154;4.498;2023-06-10T11:30:36;8.55;;;4.78;;
72413;SDS011;60995;52.154;4.498;2023-06-10T11:32:52;8.38;;;4.85;;
72413;SDS011;60995;52.154;4.498;2023-06-10T11:35:09;9.43;;;4.32;;
72413;SDS011;60995;52.154;4.498;2023-06-10T11:37:25;11.07;;;4.70;;
72413;SDS011;60995;52.154;4.498;2023-06-10T11:39:41;10.75;;;5.10;;
72413;SDS011;60995;52.154;4.498;2023-06-10T11:41:58;7.75;;;4.82;;
72413;SDS011;60995;52.154;4.498;2023-06-10T11:44:15;6.93;;;4.35;;
72413;SDS011;60995;52.154;4.498;2023-06-10T11:46:31;8.10;;;4.90;;
72413;SDS011;60995;52.154;4.498;2023-06-10T11:48:53;8.38;;;4.40;;
72413;SDS011;60995;52.154;4.498;2023-06-10T11:51:13;9.57;;;4.80;;
72413;SDS011;60995;52.154;4.498;2023-06-10T11:53:29;11.80;;;4.75;;
72413;SDS011;60995;52.154;4.498;2023-06-10T11:55:47;8.38;;;4.43;;
72413;SDS011;60995;52.154;4.498;2023-06-10T11:58:16;9.10;;;4.38;;
72413;SDS011;60995;52.154;4.498;2023-06-10T12:00:43;10.52;;;4.40;;
72413;SDS011;60995;52.154;4.498;2023-06-10T12:03:02;8.93;;;4.60;;
72413;SDS011;60995;52.154;4.498;2023-06-10T12:05:18;7.75;;;4.13;;
72413;SDS011;60995;52.154;4.498;2023-06-10T12:07:36;7.43;;;4.32;;
72413;SDS011;60995;52.154;4.498;2023-06-10T12:09:59;12.07;;;4.10;;
72413;SDS011;60995;52.154;4.498;2023-06-10T12:12:16;11.63;;;4.18;;
72413;SDS011;60995;52.154;4.498;2023-06-10T12:17:12;9.77;;;4.65;;
72413;SDS011;60995;52.154;4.498;2023-06-10T12:19:28;9.90;;;4.78;;
72413;SDS011;60995;52.154;4.498;2023-06-10T12:21:44;10.07;;;4.10;;
72413;SDS011;60995;52.154;4.498;2023-06-10T12:24:06;16.25;;;4.60;;
72413;SDS011;60995;52.154;4.498;2023-06-10T12:26:33;11.95;;;4.20;;
72413;SDS011;60995;52.154;4.498;2023-06-10T12:28:51;9.57;;;4.45;;
72413;SDS011;60995;52.154;4.498;2023-06-10T12:31:08;10.55;;;4.55;;
72413;SDS011;60995;52.154;4.498;2023-06-10T12:33:26;12.65;;;4.30;;
72413;SDS011;60995;52.154;4.498;2023-06-10T12:35:47;7.63;;;4.63;;
72413;SDS011;60995;52.154;4.498;2023-06-10T12:38:08;9.27;;;4.30;;
72413;SDS011;60995;52.154;4.498;2023-06-10T12:40:27;9.73;;;4.30;;
72413;SDS011;60995;52.154;4.498;2023-06-10T12:42:51;9.77;;;4.55;;
72413;SDS011;60995;52.154;4.498;2023-06-10T12:45:08;11.57;;;4.53;;
72413;SDS011;60995;52.154;4.498;2023-06-10T12:47:32;9.82;;;4.32;;
72413;SDS011;60995;52.154;4.498;2023-06-10T12:49:53;8.00;;;4.45;;
72413;SDS011;60995;52.154;4.498;2023-06-10T12:52:10;9.65;;;4.50;;
72413;SDS011;60995;52.154;4.498;2023-06-10T12:54:26;8.00;;;4.30;;
72413;SDS011;60995;52.154;4.498;2023-06-10T12:56:42;7.00;;;3.90;;
72413;SDS011;60995;52.154;4.498;2023-06-10T12:58:59;10.88;;;4.43;;
72413;SDS011;60995;52.154;4.498;2023-06-10T13:01:15;9.05;;;4.32;;
72413;SDS011;60995;52.154;4.498;2023-06-10T13:03:31;8.95;;;4.13;;
72413;SDS011;60995;52.154;4.498;2023-06-10T13:05:48;10.05;;;4.32;;
72413;SDS011;60995;52.154;4.498;2023-06-10T13:08:08;9.63;;;4.10;;
72413;SDS011;60995;52.154;4.498;2023-06-10T13:10:27;9.68;;;4.20;;
72413;SDS011;60995;52.154;4.498;2023-06-10T13:12:44;8.55;;;4.20;;
72413;SDS011;60995;52.154;4.498;2023-06-10T13:15:02;8.88;;;4.90;;
72413;SDS011;60995;52.154;4.498;2023-06-10T13:17:20;8.10;;;4.80;;
72413;SDS011;60995;52.154;4.498;2023-06-10T13:19:36;10.80;;;4.53;;
72413;SDS011;60995;52.154;4.498;2023-06-10T13:21:53;12.70;;;5.45;;
72413;SDS011;60995;52.154;4.498;2023-06-10T13:24:09;11.45;;;4.57;;
72413;SDS011;60995;52.154;4.498;2023-06-10T13:26:26;8.80;;;4.30;;
72413;SDS011;60995;52.154;4.498;2023-06-10T13:28:42;11.55;;;4.88;;
72413;SDS011;60995;52.154;4.498;2023-06-10T13:31:00;10.85;;;3.90;;
72413;SDS011;60995;52.154;4.498;2023-06-10T13:33:16;9.10;;;4.10;;
72413;SDS011;60995;52.154;4.498;2023-06-10T13:35:32;7.28;;;3.90;;
72413;SDS011;60995;52.154;4.498;2023-06-10T13:37:48;8.77;;;4.40;;
72413;SDS011;60995;52.154;4.498;2023-06-10T13:40:05;7.55;;;4.05;;
72413;SDS011;60995;52.154;4.498;2023-06-10T13:42:23;7.55;;;4.10;;
72413;SDS011;60995;52.154;4.498;2023-06-10T13:44:42;9.25;;;3.75;;
72413;SDS011;60995;52.154;4.498;2023-06-10T13:46:58;8.85;;;4.03;;
72413;SDS011;60995;52.154;4.498;2023-06-10T13:49:15;10.48;;;4.53;;
72413;SDS011;60995;52.154;4.498;2023-06-10T13:51:32;9.27;;;4.10;;
72413;SDS011;60995;52.154;4.498;2023-06-10T13:53:48;8.35;;;4.00;;
72413;SDS011;60995;52.154;4.498;2023-06-10T13:56:06;14.27;;;4.40;;
72413;SDS011;60995;52.154;4.498;2023-06-10T13:58:22;7.45;;;3.85;;
72413;SDS011;60995;52.154;4.498;2023-06-10T14:00:39;8.98;;;4.32;;